ΕΜΥ, Εθνική Μετεωρολογική Υπηρεσία - Δελτία Καιρού, Προγνώσεις

ΑΕΡΟΝΑΥΤΙΛΙΑ

GREEK AIRPORTS CODES

LGAV 270020Z 36015KT 9999 FEW025 18/10 Q1015 RMK NOSIG=

EUROPEAN AIRPORTS CODES

LFPO 270000Z AUTO VRB02KT 9999 BKN041 BKN049 BKN060 14/13Q1018 NOSIG=